Terminal Aerodrome Forecast
Issued by NWS Dallas/Fort Worth, TX

Home | Current Version | Previous Version | Text Only | Print | Product List | Glossary On
Versions: 1 2 3 4 5 6 7 8 9 10 11 12 13 14 15 16 17 18 19 20 21 22 23 24 25 26 27 28 29 30 31 32 33 34 35
000
FTUS44 KFWD 181134
TAFDFW
TAF
KDFW 181134Z 1812/1918 31005KT 5SM BR BKN090
     FM181300 01005KT 4SM BR SCT007 SCT090
      TEMPO 1813/1815 2SM BR BKN007
     FM181600 09006KT P6SM BKN015
     FM181800 12008KT P6SM SCT020 BKN035
     FM190000 14008KT P6SM VCTS SCT040 BKN070CB
      TEMPO 1900/1902 4SM -TSRA BKN025CB
     FM190400 13005KT P6SM VCSH SCT030 BKN120=

USA.gov is the U.S. government's official web portal to all federal, state and local government web resources and services.